Time;durP1;ratioP1;P1;durP2;ratioP2;P2;SDS_P1;SDS_P2;PMS_P1;PMS_P2;Temp;Humidity;BMP_temperature;BMP_pressure;BME280_temperature;BME280_humidity;BME280_pressure;Samples;Min_cycle;Max_cycle;Signal;HPM_P1;HPM_P2
2020/12/30 00:00:00;;;;;;;6.17;3.37;;;;;;;;;;5054997;28;20036;-68
2020/12/30 00:02:30;;;;;;;4.03;2.73;;;;;;;;;;5055110;28;20389;-68
2020/12/30 00:04:56;;;;;;;5.57;3.23;;;;;;;;;;5055437;28;20101;-67
2020/12/30 00:07:22;;;;;;;5.53;3.40;;;;;;;;;;5055114;28;20028;-68
2020/12/30 00:09:49;;;;;;;3.73;2.30;;;;;;;;;;5055184;28;20032;-68
2020/12/30 00:12:15;;;;;;;4.43;1.97;;;;;;;;;;5055306;28;20029;-68
2020/12/30 00:14:42;;;;;;;2.77;1.70;;;;;;;;;;5054976;28;20029;-67
2020/12/30 00:17:08;;;;;;;2.60;1.60;;;;;;;;;;5054731;28;20052;-68
2020/12/30 00:19:34;;;;;;;2.80;1.10;;;;;;;;;;5054874;28;20087;-67
2020/12/30 00:22:00;;;;;;;2.17;1.07;;;;;;;;;;5054821;28;20025;-68
2020/12/30 00:24:26;;;;;;;1.80;0.90;;;;;;;;;;5054736;28;20029;-68
2020/12/30 00:26:52;;;;;;;1.60;0.90;;;;;;;;;;5054555;28;20390;-68
2020/12/30 00:29:18;;;;;;;2.13;1.00;;;;;;;;;;5054804;28;20490;-68
2020/12/30 00:31:44;;;;;;;3.30;1.97;;;;;;;;;;5054656;28;20500;-68
2020/12/30 00:34:10;;;;;;;7.30;4.57;;;;;;;;;;5054756;28;20029;-68
2020/12/30 00:36:40;;;;;;;2.23;1.70;;;;;;;;;;5054578;28;20025;-67
2020/12/30 00:39:06;;;;;;;3.87;2.00;;;;;;;;;;5054476;28;20033;-68
2020/12/30 00:41:33;;;;;;;4.80;2.93;;;;;;;;;;5054770;28;20473;-67
2020/12/30 00:44:00;;;;;;;6.47;3.20;;;;;;;;;;5054687;28;20029;-67
2020/12/30 00:46:26;;;;;;;5.30;3.33;;;;;;;;;;5054518;28;20033;-67
2020/12/30 00:48:52;;;;;;;5.93;3.73;;;;;;;;;;5052556;28;20469;-67
2020/12/30 00:51:18;;;;;;;6.57;3.13;;;;;;;;;;5054360;28;20104;-67
2020/12/30 00:53:44;;;;;;;6.67;3.40;;;;;;;;;;5054479;28;20028;-68
2020/12/30 00:56:11;;;;;;;5.87;3.60;;;;;;;;;;5054340;28;20020;-68
2020/12/30 00:58:38;;;;;;;6.83;3.13;;;;;;;;;;5054054;28;20075;-68
2020/12/30 01:01:04;;;;;;;7.53;3.20;;;;;;;;;;5053769;28;20036;-67
2020/12/30 01:03:30;;;;;;;6.80;3.27;;;;;;;;;;5054700;28;20103;-68
2020/12/30 01:05:57;;;;;;;5.77;3.67;;;;;;;;;;5054218;28;20033;-68
2020/12/30 01:08:23;;;;;;;4.47;2.73;;;;;;;;;;5054289;28;20036;-68
2020/12/30 01:10:49;;;;;;;4.53;2.70;;;;;;;;;;5053799;28;20043;-67
2020/12/30 01:13:15;;;;;;;5.40;2.83;;;;;;;;;;5053823;28;20211;-68
2020/12/30 01:15:41;;;;;;;4.83;2.80;;;;;;;;;;5053761;28;20025;-68
2020/12/30 01:18:07;;;;;;;4.37;2.37;;;;;;;;;;5053501;28;20495;-67
2020/12/30 01:20:33;;;;;;;4.07;2.70;;;;;;;;;;5053841;28;20040;-68
2020/12/30 01:23:00;;;;;;;4.43;1.90;;;;;;;;;;5053995;28;20021;-68
2020/12/30 01:25:26;;;;;;;4.93;2.50;;;;;;;;;;5053933;28;20056;-68
2020/12/30 01:27:52;;;;;;;4.77;2.40;;;;;;;;;;5053884;28;20017;-68
2020/12/30 01:30:18;;;;;;;5.50;3.03;;;;;;;;;;5053745;28;20154;-68
2020/12/30 01:32:44;;;;;;;3.97;2.37;;;;;;;;;;5053640;28;20029;-68
2020/12/30 01:35:10;;;;;;;4.60;2.60;;;;;;;;;;5053516;28;20021;-68
2020/12/30 01:37:36;;;;;;;5.23;2.67;;;;;;;;;;5052993;28;20044;-68
2020/12/30 01:40:02;;;;;;;3.00;1.77;;;;;;;;;;5052750;28;20390;-68
2020/12/30 01:42:29;;;;;;;2.43;1.47;;;;;;;;;;5052700;28;20033;-68
2020/12/30 01:44:55;;;;;;;3.67;1.60;;;;;;;;;;5052849;28;20029;-68
2020/12/30 01:47:21;;;;;;;3.20;1.70;;;;;;;;;;5053250;28;20035;-68
2020/12/30 01:49:47;;;;;;;2.10;1.27;;;;;;;;;;5053197;28;20029;-68
2020/12/30 01:52:13;;;;;;;1.93;1.20;;;;;;;;;;5053412;28;20482;-68
2020/12/30 01:54:40;;;;;;;3.90;1.13;;;;;;;;;;5053169;28;20103;-67
2020/12/30 01:57:06;;;;;;;1.97;1.30;;;;;;;;;;5053022;28;20073;-68
2020/12/30 01:59:32;;;;;;;1.80;0.87;;;;;;;;;;5050361;28;20098;-68
2020/12/30 02:02:01;;;;;;;1.50;0.90;;;;;;;;;;5049879;28;20032;-68
2020/12/30 02:04:35;;;;;;;4.37;1.00;;;;;;;;;;5051219;28;20036;-68
2020/12/30 02:07:01;;;;;;;0.90;0.70;;;;;;;;;;5052767;28;20032;-68
2020/12/30 02:09:27;;;;;;;1.83;1.00;;;;;;;;;;5053105;28;20417;-68
2020/12/30 02:11:53;;;;;;;1.53;1.00;;;;;;;;;;5052843;28;20469;-68
2020/12/30 02:14:21;;;;;;;1.73;0.90;;;;;;;;;;5052369;28;20029;-68
2020/12/30 02:16:56;;;;;;;1.90;0.70;;;;;;;;;;5052153;28;20371;-68
2020/12/30 02:19:22;;;;;;;1.57;0.97;;;;;;;;;;5052712;28;20112;-68
2020/12/30 02:21:49;;;;;;;4.13;0.93;;;;;;;;;;5052260;28;20505;-68
2020/12/30 02:24:34;;;;;;;2.60;1.00;;;;;;;;;;5052741;28;20075;-68
2020/12/30 02:27:01;;;;;;;1.83;1.00;;;;;;;;;;5052784;28;20029;-68
2020/12/30 02:29:28;;;;;;;1.03;0.80;;;;;;;;;;5052264;28;20032;-68
2020/12/30 02:31:54;;;;;;;1.87;1.07;;;;;;;;;;5052170;28;20470;-68
2020/12/30 02:34:19;;;;;;;1.87;1.10;;;7.40;90.20;;;;;;5052436;28;20036;-67
2020/12/30 02:36:45;;;;;;;3.70;1.00;;;;;;;;;;5052212;28;20025;-67
2020/12/30 02:39:11;;;;;;;1.20;0.90;;;;;;;;;;5052523;28;20099;-68
2020/12/30 02:41:38;;;;;;;1.10;0.90;;;;;;;;;;5052452;28;20120;-68
2020/12/30 02:44:05;;;;;;;1.30;0.97;;;;;;;;;;5052386;28;20037;-68
2020/12/30 02:46:31;;;;;;;4.10;1.00;;;;;;;;;;5052099;28;20028;-67
2020/12/30 02:48:57;;;;;;;2.20;1.00;;;;;;;;;;5052430;28;20032;-68
2020/12/30 02:51:23;;;;;;;1.77;0.90;;;;;;;;;;5052255;28;20064;-68
2020/12/30 02:53:49;;;;;;;6.17;1.00;;;;;;;;;;5052567;28;20029;-68
2020/12/30 02:56:17;;;;;;;3.90;0.73;;;;;;;;;;5052410;28;20028;-68
2020/12/30 02:58:43;;;;;;;1.20;0.87;;;;;;;;;;5052397;28;20029;-68
2020/12/30 03:01:12;;;;;;;2.07;1.00;;;;;;;;;;5052186;28;20099;-67
2020/12/30 03:03:38;;;;;;;1.20;0.80;;;;;;;;;;5052342;28;20104;-68
2020/12/30 03:06:05;;;;;;;0.93;0.70;;;;;;;;;;5052404;28;20390;-68
2020/12/30 03:08:31;;;;;;;1.17;0.60;;;;;;;;;;5052488;28;20452;-68
2020/12/30 03:10:57;;;;;;;3.30;1.00;;;;;;;;;;5052321;28;20099;-68
2020/12/30 03:13:23;;;;;;;4.73;0.83;;;;;;;;;;5055661;28;20213;-68
2020/12/30 03:15:49;;;;;;;1.73;0.87;;;;;;;;;;5056403;28;20049;-67
2020/12/30 03:18:15;;;;;;;1.77;0.90;;;;;;;;;;5055973;28;20110;-67
2020/12/30 03:20:41;;;;;;;1.67;0.90;;;;;;;;;;5056161;28;20428;-67
2020/12/30 03:23:08;;;;;;;1.57;0.90;;;;;;;;;;5056189;28;20100;-68
2020/12/30 03:25:34;;;;;;;1.63;0.80;;;;;;;;;;5055972;28;20090;-68
2020/12/30 03:28:01;;;;;;;1.90;0.90;;;;;;;;;;5055928;28;20024;-67
2020/12/30 03:30:27;;;;;;;2.13;1.00;;;;;;;;;;5055896;28;20056;-68
2020/12/30 03:32:53;;;;;;;1.60;0.73;;;;;;;;;;5056047;28;20021;-68
2020/12/30 03:35:20;;;;;;;1.83;0.90;;;;;;;;;;5055906;28;20021;-68
2020/12/30 03:37:46;;;;;;;1.53;0.67;;;;;;;;;;5055822;28;20028;-68
2020/12/30 03:40:12;;;;;;;1.33;0.70;;;;;;;;;;5055938;28;20037;-68
2020/12/30 03:42:38;;;;;;;1.70;1.00;;;;;;;;;;5055844;28;20021;-68
2020/12/30 03:45:04;;;;;;;2.73;1.00;;;;;;;;;;5055704;28;20103;-68
2020/12/30 03:47:30;;;;;;;2.23;0.90;;;;;;;;;;5055490;28;20021;-68
2020/12/30 03:49:57;;;;;;;3.53;0.90;;;;;;;;;;5055742;28;20029;-67
2020/12/30 03:52:23;;;;;;;1.30;0.90;;;;;;;;;;5055679;28;20029;-68
2020/12/30 03:54:49;;;;;;;4.73;1.03;;;;;;;;;;5055675;28;20040;-68
2020/12/30 03:57:15;;;;;;;4.43;1.47;;;;;;;;;;5055377;28;20074;-68
2020/12/30 03:59:41;;;;;;;2.70;1.37;;;;;;;;;;5055391;28;20029;-68
2020/12/30 04:02:07;;;;;;;2.67;1.20;;;;;;;;;;5055298;28;20021;-68
2020/12/30 04:04:33;;;;;;;2.30;1.50;;;;;;;;;;5055283;28;20028;-68
2020/12/30 04:06:59;;;;;;;3.37;1.50;;;;;;;;;;5055259;28;20017;-68
2020/12/30 04:09:25;;;;;;;2.20;1.57;;;;;;;;;;5054976;28;20067;-68
2020/12/30 04:11:51;;;;;;;7.23;1.70;;;;;;;;;;5055342;28;20029;-68
2020/12/30 04:14:18;;;;;;;3.03;1.37;;;;;;;;;;5055313;28;20374;-68
2020/12/30 04:16:44;;;;;;;2.77;1.50;;;;;;;;;;5054752;28;20025;-67
2020/12/30 04:19:10;;;;;;;2.87;1.60;;;;;;;;;;5055146;28;20048;-68
2020/12/30 04:21:37;;;;;;;4.20;1.87;;;;;;;;;;5055192;28;20025;-68
2020/12/30 04:24:03;;;;;;;3.93;1.50;;;;;;;;;;5054174;28;20028;-68
2020/12/30 04:26:29;;;;;;;2.27;1.50;;;;;;;;;;5054771;28;20025;-68
2020/12/30 04:28:55;;;;;;;4.73;1.60;;;;;;;;;;5054803;28;20051;-68
2020/12/30 04:31:21;;;;;;;3.13;1.60;;;;;;;;;;5055029;28;20025;-68
2020/12/30 04:33:47;;;;;;;2.40;1.40;;;;;;;;;;5054960;28;20025;-68
2020/12/30 04:36:13;;;;;;;2.33;1.43;;;;;;;;;;5054790;28;20032;-68
2020/12/30 04:38:40;;;;;;;2.37;1.53;;;;;;;;;;5054623;28;20021;-68
2020/12/30 04:41:11;;;;;;;2.87;1.40;;;;;;;;;;5054453;28;20071;-68
2020/12/30 04:43:38;;;;;;;2.43;1.63;;;;;;;;;;5054638;28;20017;-68
2020/12/30 04:46:04;;;;;;;2.13;1.37;;;;;;;;;;5054582;28;20091;-68
2020/12/30 04:48:32;;;;;;;5.47;1.67;;;;;;;;;;5054510;28;20539;-68
2020/12/30 04:50:58;;;;;;;2.27;1.17;;;;;;;;;;5054439;28;20025;-68
2020/12/30 04:53:24;;;;;;;2.47;1.57;;;;;;;;;;5054559;28;20030;-68
2020/12/30 04:55:51;;;;;;;2.13;1.50;;;;;;;;;;5054360;28;20020;-68
2020/12/30 04:58:18;;;;;;;2.27;1.30;;;;;;;;;;5054123;28;20446;-68
2020/12/30 05:00:45;;;;;;;1.90;1.17;;;;;;;;;;5054313;28;20083;-68
2020/12/30 05:03:12;;;;;;;2.20;1.43;;;;;;;;;;5054171;28;20067;-68
2020/12/30 05:05:38;;;;;;;2.47;1.60;;;;;;;;;;5053987;28;20044;-68
2020/12/30 05:08:14;;;;;;;4.50;1.67;;;;;;;;;;5054137;28;20382;-68
2020/12/30 05:10:41;;;;;;;2.30;1.70;;;;;;;;;;5053817;28;20025;-68
2020/12/30 05:13:08;;;;;;;2.13;1.40;;;;;;;;;;5054066;28;20477;-67
2020/12/30 05:15:34;;;;;;;3.40;1.40;;;;;;;;;;5053850;28;20013;-68
2020/12/30 05:18:04;;;;;;;3.87;2.00;;;;;;;;;;5053759;28;20076;-68
2020/12/30 05:20:35;;;;;;;2.43;1.60;;;;;;;;;;5053990;28;20112;-68
2020/12/30 05:23:05;;;;;;;2.20;1.70;;;;;;;;;;5053819;28;20013;-67
2020/12/30 05:25:33;;;;;;;2.83;1.87;;;;;;;;;;5053865;28;20492;-68
2020/12/30 05:27:59;;;;;;;3.37;2.13;;;;;;;;;;5053727;28;20017;-68
2020/12/30 05:30:26;;;;;;;2.97;1.80;;;;;;;;;;5053498;28;20094;-68
2020/12/30 05:32:53;;;;;;;3.00;2.00;;;;;;;;;;5053411;28;20021;-68
2020/12/30 05:35:20;;;;;;;3.80;2.40;;;;;;;;;;5052935;28;20084;-68
2020/12/30 05:37:47;;;;;;;4.17;2.20;;;;;;;;;;5052858;28;20032;-67
2020/12/30 05:40:29;;;;;;;4.87;2.60;;;;;;;;;;5052502;28;20037;-68
2020/12/30 05:43:08;;;;;;;3.00;2.10;;;;;;;;;;5052916;28;20120;-68
2020/12/30 05:45:43;;;;;;;4.07;2.30;;;;;;;;;;5053064;28;20418;-68
2020/12/30 05:48:10;;;;;;;5.53;2.40;;;;;;;;;;5053288;28;20481;-67
2020/12/30 05:50:46;;;;;;;6.43;2.50;;;;;;;;;;5053024;28;20100;-68
2020/12/30 05:53:14;;;;;;;4.90;2.47;;;;;;;;;;5052821;28;20461;-67
2020/12/30 05:55:40;;;;;;;4.47;2.73;;;;;;;;;;5052585;28;20551;-68
2020/12/30 05:58:08;;;;;;;3.70;2.27;;;;;;;;;;5052626;28;20021;-67
2020/12/30 06:00:34;;;;;;;5.00;2.30;;;;;;;;;;5052411;28;20044;-67
2020/12/30 06:03:00;;;;;;;6.37;2.70;;;;;;;;;;5053104;28;20040;-68
2020/12/30 06:05:28;;;;;;;5.50;2.40;;;;;;;;;;5053382;28;20102;-68
2020/12/30 06:07:54;;;;;;;6.47;2.43;;;;;;;;;;5053086;28;20064;-67
2020/12/30 06:10:21;;;;;;;4.00;2.27;;;;;;;;;;5053028;28;20099;-68
2020/12/30 06:12:47;;;;;;;4.13;2.57;;;;;;;;;;5053135;28;20029;-68
2020/12/30 06:15:29;;;;;;;7.07;3.53;;;;;;;;;;5052910;28;20473;-68
2020/12/30 06:17:55;;;;;;;7.50;3.27;;;;;;;;;;5052925;28;20080;-67
2020/12/30 06:20:31;;;;;;;5.30;3.47;;;;;;;;;;5052851;28;20036;-68
2020/12/30 06:23:01;;;;;;;5.33;3.23;;;;;;;;;;5052935;28;20096;-67
2020/12/30 06:25:28;;;;;;;8.77;3.30;;;;;;;;;;5052891;28;20484;-68
2020/12/30 06:27:54;;;;;;;4.83;3.20;;;;;;;;;;5052946;28;20505;-68
2020/12/30 06:30:21;;;;;;;6.23;2.83;;;;;;;;;;5052650;28;20477;-67
2020/12/30 06:32:47;;;;;;;4.00;2.80;;;;;;;;;;5052617;28;20563;-68
2020/12/30 06:35:13;;;;;;;6.80;3.87;;;;;;;;;;5052666;28;20033;-68
2020/12/30 06:37:41;;;;;;;6.00;2.77;;;;;;;;;;5052486;28;20037;-68
2020/12/30 06:40:17;;;;;;;4.57;2.77;;;;;;;;;;5052600;28;20051;-67
2020/12/30 06:42:44;;;;;;;4.47;3.17;;;;;;;;;;5052578;28;20079;-68
2020/12/30 06:45:12;;;;;;;4.83;3.10;;;;;;;;;;5052638;28;20056;-68
2020/12/30 06:47:56;;;;;;;5.67;3.47;;;;;;;;;;5054948;28;20060;-68
2020/12/30 06:50:22;;;;;;;6.50;3.73;;;;;;;;;;5056310;28;20025;-67
2020/12/30 06:52:48;;;;;;;5.33;3.70;;;;;;;;;;5056435;28;20068;-67
2020/12/30 06:55:14;;;;;;;5.87;4.13;;;;;;;;;;5056527;28;20095;-67
2020/12/30 06:57:44;;;;;;;6.17;4.43;;;;;;;;;;5056363;28;20466;-67
2020/12/30 07:00:22;;;;;;;6.73;3.97;;;;;;;;;;5056522;28;20041;-67
2020/12/30 07:03:07;;;;;;;7.43;4.73;;;;;;;;;;5056420;28;20037;-67
2020/12/30 07:05:33;;;;;;;10.10;3.90;;;;;;;;;;5056046;28;20028;-67
2020/12/30 07:07:59;;;;;;;6.83;4.20;;;;;;;;;;5056376;28;20025;-67
2020/12/30 07:10:25;;;;;;;5.20;3.77;;;;;;;;;;5056281;28;20474;-67
2020/12/30 07:12:51;;;;;;;5.67;4.00;;;;;;;;;;5056416;28;20036;-67
2020/12/30 07:15:24;;;;;;;5.40;3.70;;;;;;;;;;5056395;28;20067;-67
2020/12/30 07:17:50;;;;;;;6.18;4.32;;;;;;;;;;5055947;28;20099;-68
2020/12/30 07:20:22;;;;;;;6.10;3.90;;;;;;;;;;5056215;28;20094;-67
2020/12/30 07:22:48;;;;;;;6.63;3.42;;;;;;;;;;5056145;28;20040;-67
2020/12/30 07:25:15;;;;;;;7.73;3.83;;;;;;;;;;5055928;28;20051;-67
2020/12/30 07:27:41;;;;;;;6.50;4.00;;;;;;;;;;5055799;28;20021;-67
2020/12/30 07:30:07;;;;;;;5.60;3.77;;;;;;;;;;5056120;28;20025;-67
2020/12/30 07:32:34;;;;;;;6.20;3.87;;;;;;;;;;5055664;28;20600;-67
2020/12/30 07:35:00;;;;;;;4.40;3.77;;;;;;;;;;5055931;28;20021;-67
2020/12/30 07:37:27;;;;;;;7.60;3.43;;;;;;;;;;5054919;28;20021;-68
2020/12/30 07:39:53;;;;;;;4.47;2.70;;;;;;;;;;5053813;28;20543;-67
2020/12/30 07:42:23;;;;;;;4.23;2.90;;;;;;;;;;5054221;28;20025;-67
2020/12/30 07:44:53;;;;;;;5.27;2.90;;;;;;;;;;5054872;28;20049;-68
2020/12/30 07:47:19;;;;;;;4.13;2.77;;;;;;;;;;5055295;28;20462;-68
2020/12/30 07:49:46;;;;;;;4.30;2.70;;;;;;;;;;5055709;28;20432;-68
2020/12/30 07:52:12;;;;;;;6.67;3.53;;;;;;;;;;5055683;28;20377;-68
2020/12/30 07:54:38;;;;;;;4.80;3.27;;;;;;;;;;5055275;28;20031;-67
2020/12/30 07:57:14;;;;;;;4.20;2.73;;;;;;;;;;5054936;28;20425;-68
2020/12/30 07:59:41;;;;;;;4.30;2.47;;;;;;;;;;5053969;28;20143;-67
2020/12/30 08:02:09;;;;;;;6.10;3.20;;;;;;;;;;5055190;28;20053;-70
2020/12/30 08:04:37;;;;;;;3.80;2.70;;;;;;;;;;5055389;28;20474;-68
2020/12/30 08:07:04;;;;;;;7.70;3.17;;;;;;;;;;5055000;28;20059;-68
2020/12/30 08:09:32;;;;;;;5.17;2.83;;;;;;;;;;5054684;28;20018;-67
2020/12/30 08:11:59;;;;;;;5.07;3.20;;;;;;;;;;5055058;28;20470;-68
2020/12/30 08:14:29;;;;;;;4.23;2.67;;;;;;;;;;5054397;28;20024;-68
2020/12/30 08:16:57;;;;;;;4.70;3.23;;;;;;;;;;5053679;28;20470;-68
2020/12/30 08:19:50;;;;;;;8.17;3.00;;;;;;;;;;5055188;28;20029;-66
2020/12/30 08:22:18;;;;;;;4.85;2.97;;;;;;;;;;5052948;28;20033;-67
2020/12/30 08:24:44;;;;;;;6.00;3.10;;;;;;;;;;5052003;28;20032;-67
2020/12/30 08:27:12;;;;;;;6.30;3.20;;;;;;;;;;5051892;28;20413;-66
2020/12/30 08:29:38;;;;;;;7.40;3.73;;;;;;;;;;5051917;28;20032;-67
2020/12/30 08:32:07;;;;;;;5.40;4.27;;;;;;;;;;5053874;28;20025;-67
2020/12/30 08:34:38;;;;;;;6.87;6.13;;;;;;;;;;5054871;28;20024;-67
2020/12/30 08:37:07;;;;;;;8.03;6.00;;;;;;;;;;5054556;28;20064;-67
2020/12/30 08:39:36;;;;;;;9.07;7.30;;;;;;;;;;5054470;28;20040;-68
2020/12/30 08:42:03;;;;;;;9.23;7.00;;;;;;;;;;5053462;28;20018;-67
2020/12/30 08:44:34;;;;;;;11.60;6.90;;;;;;;;;;5054354;28;20083;-67
2020/12/30 08:47:03;;;;;;;9.03;6.60;;;;;;;;;;5054079;28;20025;-67
2020/12/30 08:49:29;;;;;;;8.07;6.23;;;;;;;;;;5054550;28;20021;-67
2020/12/30 08:51:55;;;;;;;9.73;7.53;;;;;;;;;;5051692;28;20029;-66
2020/12/30 08:54:21;;;;;;;13.93;10.63;;;;;;;;;;5053848;28;20101;-67
2020/12/30 08:56:47;;;;;;;15.30;12.67;;;;;;;;;;5054423;28;20078;-67
2020/12/30 08:59:23;;;;;;;18.47;13.93;;;;;;;;;;5051475;28;20063;-68
2020/12/30 09:01:49;;;;;;;17.07;14.07;;;;;;;;;;5051599;28;20494;-68
2020/12/30 09:04:15;;;;;;;21.47;16.50;;;;;;;;;;5053050;28;20500;-68
2020/12/30 09:06:48;;;;;;;24.17;17.73;;;;;;;;;;5054014;28;20032;-68
2020/12/30 09:09:18;;;;;;;23.47;17.20;;;;;;;;;;5054396;28;20044;-68
2020/12/30 09:11:45;;;;;;;19.90;15.37;;;;;;;;;;5054119;28;20438;-68
2020/12/30 09:14:15;;;;;;;20.70;15.17;;;;;;;;;;5053675;28;20102;-68
2020/12/30 09:16:56;;;;;;;20.37;15.33;;;;;;;;;;5052633;28;20473;-68
2020/12/30 09:19:22;;;;;;;19.80;14.87;;;;;;;;;;5054005;28;20155;-68
2020/12/30 09:21:48;;;;;;;22.73;16.67;;;;;;;;;;5053731;28;20037;-68
2020/12/30 09:24:15;;;;;;;22.10;17.67;;;;;;;;;;5051371;28;20477;-68
2020/12/30 09:26:41;;;;;;;19.20;14.37;;;;;;;;;;5051140;28;20753;-68
2020/12/30 09:29:20;;;;;;;19.07;14.90;;;;;;;;;;5051317;28;20385;-67
2020/12/30 09:31:56;;;;;;;17.50;12.87;;;;;;;;;;5053358;28;20064;-68
2020/12/30 09:34:25;;;;;;;22.00;14.10;;;;;;;;;;5053644;28;20025;-67
2020/12/30 09:36:55;;;;;;;17.60;12.37;;;;;;;;;;5053456;28;20013;-67
2020/12/30 09:39:21;;;;;;;16.50;12.83;;;;;;;;;;5053449;28;20488;-67
2020/12/30 09:41:47;;;;;;;18.63;13.53;;;;;;;;;;5053606;28;20095;-67
2020/12/30 09:44:14;;;;;;;17.03;12.87;;;;;;;;;;5053729;28;20033;-67
2020/12/30 09:46:50;;;;;;;14.57;11.10;;;;;;;;;;5053447;28;20358;-68
2020/12/30 09:49:16;;;;;;;14.93;11.03;;;;;;;;;;5053537;28;20029;-66
2020/12/30 09:51:43;;;;;;;12.67;7.43;;;;;;;;;;5053292;28;20025;-67
2020/12/30 09:54:09;;;;;;;11.93;7.70;;;;;;;;;;5053040;28;20024;-67
2020/12/30 09:56:35;;;;;;;12.10;8.90;;;;;;;;;;5053163;28;20024;-67
2020/12/30 09:59:02;;;;;;;12.83;9.30;;;;;;;;;;5053344;28;20025;-67
2020/12/30 10:01:30;;;;;;;14.87;10.47;;;;;;;;;;5053130;28;20020;-66
2020/12/30 10:03:56;;;;;;;15.37;10.13;;;;;;;;;;5053174;28;20017;-66
2020/12/30 10:06:22;;;;;;;13.37;9.53;;;;;;;;;;5053394;28;20094;-67
2020/12/30 10:08:49;;;;;;;13.10;9.23;;;;;;;;;;5052938;28;20040;-67
2020/12/30 10:11:20;;;;;;;17.03;9.87;;;;;;;;;;5053271;28;20025;-67
2020/12/30 10:13:46;;;;;;;11.43;7.93;;;;;;;;;;5052974;28;20021;-67
2020/12/30 10:16:12;;;;;;;9.97;7.47;;;;;;;;;;5052779;28;20260;-67
2020/12/30 10:18:39;;;;;;;12.07;7.43;;;;;;;;;;5053039;28;20045;-67
2020/12/30 10:21:05;;;;;;;10.83;7.83;;;;;;;;;;5052554;28;20047;-67
2020/12/30 10:23:31;;;;;;;11.57;7.73;;;;;;;;;;5051992;28;20413;-67
2020/12/30 10:25:57;;;;;;;9.67;6.43;;;;;;;;;;5053345;28;20362;-67
2020/12/30 10:28:23;;;;;;;9.97;7.23;;;;;;;;;;5052954;28;20048;-67
2020/12/30 10:30:49;;;;;;;7.63;6.17;;;;;;;;;;5052515;28;20038;-66
2020/12/30 10:33:15;;;;;;;8.23;5.97;;;;;;;;;;5053024;28;20033;-68
2020/12/30 10:35:41;;;;;;;9.40;5.73;;;;;;;;;;5052488;28;20029;-67
2020/12/30 10:38:07;;;;;;;8.37;6.10;;;;;;;;;;5052404;28;20040;-67
2020/12/30 10:40:33;;;;;;;9.37;6.03;;;;;;;;;;5052599;28;20555;-67
2020/12/30 10:43:03;;;;;;;10.30;6.40;;;;;;;;;;5052765;28;20151;-67
2020/12/30 10:45:29;;;;;;;13.43;5.43;;;;;;;;;;5052425;28;20143;-67
2020/12/30 10:47:55;;;;;;;8.90;6.43;;;;;;;;;;5052742;28;20025;-67
2020/12/30 10:50:21;;;;;;;9.80;6.10;;;;;;;;;;5052555;28;20029;-67
2020/12/30 10:52:47;;;;;;;8.43;5.67;;;;;;;;;;5052413;28;20082;-67
2020/12/30 10:55:13;;;;;;;8.77;5.77;;;;;;;;;;5052200;28;20624;-67
2020/12/30 10:57:39;;;;;;;9.10;6.30;;;;;;;;;;5051150;28;20035;-66
2020/12/30 11:00:05;;;;;;;7.37;5.70;;;;;;;;;;5051119;28;20435;-67
2020/12/30 11:02:31;;;;;;;10.87;6.97;;;;;;;;;;5052463;28;20025;-67
2020/12/30 11:05:00;;;;;;;11.10;7.40;;;;;;;;;;5052632;28;20027;-66
2020/12/30 11:07:26;;;;;;;8.07;6.77;;;;;;;;;;5052637;28;20052;-67
2020/12/30 11:09:52;;;;;;;12.23;7.00;;;;;;;;;;5052111;28;20079;-67
2020/12/30 11:12:18;;;;;;;10.23;7.50;;;;;;;;;;5052476;28;20025;-67
2020/12/30 11:14:44;;;;;;;8.23;6.70;;;;;;;;;;5051338;28;20070;-66
2020/12/30 11:17:10;;;;;;;7.60;5.97;;;;;;;;;;5051321;28;20482;-66
2020/12/30 11:19:36;;;;;;;9.57;6.47;;;;;;;;;;5052153;28;20044;-66
2020/12/30 11:22:02;;;;;;;9.13;6.50;;;;;;;;;;5051549;28;20108;-66
2020/12/30 11:24:28;;;;;;;9.93;6.57;;;;;;;;;;5050401;28;20080;-67
2020/12/30 11:26:54;;;;;;;8.50;6.57;;;;;;;;;;5051625;28;20025;-66
2020/12/30 11:29:20;;;;;;;9.30;6.27;;;;;;;;;;5052051;28;20032;-66
2020/12/30 11:31:46;;;;;;;9.33;6.13;;;;;;;;;;5051247;28;20029;-66
2020/12/30 11:34:12;;;;;;;13.53;6.27;;;;;;;;;;5054011;28;20442;-66
2020/12/30 11:36:38;;;;;;;6.93;4.93;;;;;;;;;;5055078;28;20025;-66
2020/12/30 11:39:04;;;;;;;8.43;5.83;;;;;;;;;;5055534;28;20516;-66
2020/12/30 11:41:30;;;;;;;6.83;5.17;;;;;;;;;;5055740;28;20542;-66
2020/12/30 11:43:56;;;;;;;6.30;4.97;;;;;;;;;;5055434;28;20355;-67
2020/12/30 11:46:25;;;;;;;7.83;5.57;;;;;;;;;;5055297;28;20035;-66
2020/12/30 11:48:53;;;;;;;6.57;4.00;;;;;;;;;;5055539;28;20036;-67
2020/12/30 11:51:19;;;;;;;6.10;4.87;;;;;;;;;;5055438;28;20096;-66
2020/12/30 11:53:45;;;;;;;3.93;2.90;;;;;;;;;;5055520;28;20047;-66
2020/12/30 11:56:29;;;;;;;6.33;3.93;;;;;;;;;;5055517;28;20025;-66
2020/12/30 11:58:55;;;;;;;5.17;3.37;;;;;;;;;;5055564;28;20022;-66
2020/12/30 12:01:21;;;;;;;4.37;3.23;;;;;;;;;;5055495;28;20099;-66
2020/12/30 12:03:47;;;;;;;2.77;1.70;;;;;;;;;;5055603;28;20025;-66
2020/12/30 12:06:14;;;;;;;2.20;1.50;;;;;;;;;;5052611;28;20094;-66
2020/12/30 12:08:40;;;;;;;2.10;1.40;;;;;;;;;;5054607;28;20099;-67
2020/12/30 12:11:06;;;;;;;2.35;1.48;;;;;;;;;;5054676;28;20048;-67
2020/12/30 12:13:32;;;;;;;1.77;1.33;;;;;;;;;;5054992;28;20029;-67
2020/12/30 12:15:59;;;;;;;2.90;1.58;;;;;;;;;;5054865;28;20428;-66
2020/12/30 12:18:25;;;;;;;4.80;1.75;;;;;;;;;;5054625;28;20120;-67
2020/12/30 12:20:51;;;;;;;2.50;1.60;;;;;;;;;;5055150;28;20040;-67
2020/12/30 12:23:17;;;;;;;3.45;2.08;;;;;;;;;;5053645;28;20017;-67
2020/12/30 12:25:43;;;;;;;2.13;1.35;;;;;;;;;;5054686;28;20128;-67
2020/12/30 12:28:09;;;;;;;3.72;2.00;;;;;;;;;;5054768;28;20025;-66
2020/12/30 12:30:35;;;;;;;3.30;1.90;;;;;;;;;;5054687;28;20021;-66
2020/12/30 12:33:01;;;;;;;2.72;2.00;;;;;;;;;;5054918;28;20083;-66
2020/12/30 12:35:27;;;;;;;4.87;3.50;;;;;;;;;;5054488;28;20021;-66
2020/12/30 12:38:06;;;;;;;5.13;3.77;;;;;;;;;;5053858;28;20071;-66
2020/12/30 12:40:32;;;;;;;8.13;4.07;;;;;;;;;;5054579;28;20060;-66
2020/12/30 12:42:58;;;;;;;5.50;3.78;;;;;;;;;;5053511;28;20052;-67
2020/12/30 12:45:24;;;;;;;4.50;3.25;;;;;;;;;;5054068;28;20051;-66
2020/12/30 12:47:50;;;;;;;5.53;2.77;;;;;;;;;;5054541;28;20300;-67
2020/12/30 12:50:16;;;;;;;3.93;2.53;;;;;;;;;;5053542;28;20508;-66
2020/12/30 12:52:42;;;;;;;4.17;2.40;;;;;;;;;;5054578;28;20519;-66
2020/12/30 12:55:08;;;;;;;3.53;1.90;;;;;;;;;;5054906;28;20029;-65
2020/12/30 12:57:34;;;;;;;2.53;1.43;;;;;;;;;;5054288;28;20148;-66
2020/12/30 13:00:00;;;;;;;3.37;1.40;;;;;;;;;;5051710;28;20394;-66
2020/12/30 13:02:26;;;;;;;3.33;2.40;;;;;;;;;;5051664;28;20487;-66
2020/12/30 13:04:52;;;;;;;7.07;2.87;;;7.00;91.00;;;;;;5052476;28;20484;-66
2020/12/30 13:07:18;;;;;;;4.33;3.23;;;9.40;83.10;;;;;;5051953;28;20045;-66
2020/12/30 13:09:43;;;;;;;4.47;2.27;;;9.40;83.20;;;;;;5050960;28;20406;-66
2020/12/30 13:12:09;;;;;;;4.13;1.90;;;9.30;83.10;;;;;;5051936;28;20380;-66
2020/12/30 13:14:35;;;;;;;4.73;2.10;;;9.30;83.30;;;;;;5053028;28;20488;-66
2020/12/30 13:17:00;;;;;;;3.63;2.40;;;9.30;83.20;;;;;;5052508;28;20428;-66
2020/12/30 13:19:26;;;;;;;2.90;2.00;;;9.30;83.50;;;;;;5053011;28;20041;-66
2020/12/30 13:21:52;;;;;;;3.83;2.40;;;9.30;83.70;;;;;;5052133;28;20382;-66
2020/12/30 13:24:18;;;;;;;4.30;2.80;;;9.20;83.60;;;;;;5052848;28;20102;-66
2020/12/30 13:26:43;;;;;;;5.33;3.23;;;9.20;83.80;;;;;;5053348;28;20036;-66
2020/12/30 13:29:09;;;;;;;7.30;3.00;;;9.20;83.80;;;;;;5053261;28;20033;-66
2020/12/30 13:31:35;;;;;;;5.80;3.07;;;9.20;84.00;;;;;;5051301;28;20078;-66
2020/12/30 13:34:01;;;;;;;4.57;3.17;;;9.20;84.20;;;;;;5052877;28;20025;-65
2020/12/30 13:36:28;;;;;;;5.97;4.10;;;9.20;84.40;;;;;;5051904;28;20474;-66
2020/12/30 13:38:55;;;;;;;5.70;4.00;;;9.10;84.50;;;;;;5052740;28;20056;-66
2020/12/30 13:41:22;;;;;;;10.87;5.67;;;9.10;84.50;;;;;;5053243;28;20083;-66
2020/12/30 13:43:48;;;;;;;23.03;8.80;;;9.10;84.60;;;;;;5052375;28;20032;-66
2020/12/30 13:46:15;;;;;;;15.53;6.67;;;9.10;84.60;;;;;;5052432;28;20025;-66
2020/12/30 13:48:40;;;;;;;9.37;5.30;;;9.10;84.90;;;;;;5052873;28;20017;-66
2020/12/30 13:51:07;;;;;;;8.17;5.40;;;9.10;84.80;;;;;;5049755;28;20095;-66
2020/12/30 13:53:33;;;;;;;12.63;6.27;;;9.10;85.30;;;;;;5050377;28;20083;-66
2020/12/30 13:55:59;;;;;;;14.37;6.17;;;9.10;84.70;;;;;;5052323;28;20017;-66
2020/12/30 13:58:25;;;;;;;13.63;6.30;;;9.20;84.80;;;;;;5052374;28;20021;-66
2020/12/30 14:00:51;;;;;;;18.33;7.33;;;9.20;84.60;;;;;;5052847;28;20111;-67
2020/12/30 14:03:17;;;;;;;9.70;5.07;;;;;;;;;;5052696;28;20017;-66
2020/12/30 14:05:44;;;;;;;11.47;6.43;;;;;;;;;;5051656;28;20482;-66
2020/12/30 14:08:10;;;;;;;11.40;6.23;;;;;;;;;;5050279;28;20505;-66
2020/12/30 14:10:37;;;;;;;11.80;6.47;;;;;;;;;;5051716;28;20025;-66
2020/12/30 14:13:03;;;;;;;11.73;7.03;;;;;;;;;;5052560;28;20049;-66
2020/12/30 14:15:29;;;;;;;9.07;5.70;;;;;;;;;;5051734;28;20032;-66
2020/12/30 14:17:55;;;;;;;6.67;4.70;;;;;;;;;;5051382;28;20517;-66
2020/12/30 14:20:21;;;;;;;9.67;5.27;;;;;;;;;;5052706;28;20037;-67
2020/12/30 14:22:49;;;;;;;9.93;4.67;;;;;;;;;;5052009;28;20025;-66
2020/12/30 14:25:15;;;;;;;5.13;3.93;;;;;;;;;;5052579;28;20063;-66
2020/12/30 14:27:41;;;;;;;7.80;4.60;;;;;;;;;;5051334;28;20025;-66
2020/12/30 14:30:07;;;;;;;6.50;4.87;;;;;;;;;;5052744;28;20100;-66